Time;durP1;ratioP1;P1;durP2;ratioP2;P2;SDS_P1;SDS_P2;PMS_P1;PMS_P2;Temp;Humidity;BMP_temperature;BMP_pressure;BME280_temperature;BME280_humidity;BME280_pressure;Samples;Min_cycle;Max_cycle;Signal;HPM_P1;HPM_P2
2023/02/25 00:00:16;;;;;;;21.25;3.20;;;;;;;11.79;95.02;100640.38;5098188;28;20070;-54
2023/02/25 00:02:44;;;;;;;21.23;3.40;;;;;;;11.96;93.37;100640.75;5083336;28;20021;-49
2023/02/25 00:05:10;;;;;;;30.17;6.05;;;;;;;11.61;93.79;100641.00;5098182;28;20032;-54
2023/02/25 00:07:35;;;;;;;34.58;4.65;;;;;;;11.66;94.56;100632.34;5097597;28;20136;-52
2023/02/25 00:10:01;;;;;;;12.82;3.03;;;;;;;11.64;94.44;100629.06;5098278;28;20036;-52
2023/02/25 00:12:28;;;;;;;18.80;3.33;;;;;;;11.58;94.20;100633.38;5097576;28;20025;-52
2023/02/25 00:14:54;;;;;;;28.52;3.45;;;;;;;11.74;93.92;100629.44;5100953;28;20336;-49
2023/02/25 00:17:19;;;;;;;20.67;4.13;;;;;;;11.91;92.48;100629.84;5100016;28;20028;-47
2023/02/25 00:19:44;;;;;;;15.70;2.73;;;;;;;11.50;93.90;100639.75;5101529;28;20276;-53
2023/02/25 00:22:10;;;;;;;18.77;2.83;;;;;;;11.53;93.87;100633.19;5097887;28;20067;-50
2023/02/25 00:24:36;;;;;;;16.70;2.83;;;;;;;11.64;94.62;100634.41;5098552;28;20036;-48
2023/02/25 00:27:03;;;;;;;24.95;3.50;;;;;;;11.73;94.24;100631.31;5096167;28;20065;-50
2023/02/25 00:29:28;;;;;;;17.05;3.60;;;;;;;11.91;92.89;100632.53;5094374;28;20115;-53
2023/02/25 00:31:54;;;;;;;13.43;2.23;;;;;;;11.91;92.72;100625.31;5095682;28;20048;-49
2023/02/25 00:34:19;;;;;;;25.00;4.20;;;;;;;11.99;92.07;100626.09;5097755;28;20101;-49
2023/02/25 00:36:45;;;;;;;11.53;2.33;;;;;;;12.01;91.69;100627.56;5102348;28;20280;-52
2023/02/25 00:39:11;;;;;;;26.50;6.70;;;;;;;12.11;91.79;100631.66;5083629;28;20103;-51
2023/02/25 00:41:37;;;;;;;11.18;2.30;;;;;;;12.23;90.65;100634.53;5101722;28;20055;-52
2023/02/25 00:44:03;;;;;;;25.15;3.08;;;;;;;12.02;92.01;100631.09;5080519;28;20028;-54
2023/02/25 00:46:31;;;;;;;18.75;3.10;;;;;;;12.04;90.95;100637.06;5080821;28;20025;-50
2023/02/25 00:48:57;;;;;;;26.60;4.22;;;;;;;11.79;91.56;100631.50;5079033;28;20067;-51
2023/02/25 00:51:29;;;;;;;12.48;2.78;;;;;;;12.04;90.95;100631.72;5101988;28;20028;-51
2023/02/25 00:53:55;;;;;;;11.82;2.88;;;;;;;12.00;91.22;100638.50;5099171;28;20101;-52
2023/02/25 00:56:22;;;;;;;17.08;3.10;;;;;;;11.78;92.11;100636.06;5100469;28;20076;-55
2023/02/25 00:58:49;;;;;;;15.85;2.67;;;;;;;11.67;92.35;100636.69;5083734;28;20035;-50
2023/02/25 01:01:24;;;;;;;16.77;2.95;;;;;;;11.96;90.86;100639.91;5098851;28;20020;-51
2023/02/25 01:03:52;;;;;;;14.88;2.30;;;;;;;12.37;88.92;100654.91;5100966;28;20062;-49
2023/02/25 01:06:18;;;;;;;19.27;2.67;;;;;;;12.47;88.65;100649.91;5098439;28;20040;-47
2023/02/25 01:08:44;;;;;;;15.80;3.33;;;;;;;11.97;90.66;100646.94;5096312;28;20032;-46
2023/02/25 01:11:25;;;;;;;16.90;2.53;;;;;;;12.64;85.58;100654.78;5100816;28;20036;-53
2023/02/25 01:13:52;;;;;;;9.15;2.50;;;;;;;12.21;89.43;100658.03;5079326;28;20037;-49
2023/02/25 01:16:20;;;;;;;7.22;2.28;;;;;;;12.47;88.31;100659.81;5079720;28;20043;-49
2023/02/25 01:18:46;;;;;;;9.02;1.88;;;;;;;12.66;86.32;100659.94;5096556;28;20040;-50
2023/02/25 01:21:19;;;;;;;13.10;2.17;;;;;;;12.64;84.78;100672.75;5103301;28;20039;-51
2023/02/25 01:23:45;;;;;;;8.65;2.65;;;;;;;12.40;85.47;100673.25;5084623;28;20040;-48
2023/02/25 01:26:11;;;;;;;11.38;2.17;;;;;;;12.50;85.21;100664.75;5090867;28;20044;-49
2023/02/25 01:28:37;;;;;;;8.73;1.80;;;;;;;12.16;87.03;100658.69;5104013;28;20100;-49
2023/02/25 01:31:03;;;;;;;14.82;1.80;;;;;;;11.98;88.28;100667.34;5100312;28;20044;-47
2023/02/25 01:33:29;;;;;;;15.07;2.42;;;;;;;12.43;87.12;100672.81;5084090;28;20035;-48
2023/02/25 01:35:54;;;;;;;14.47;2.23;;;;;;;12.30;86.70;100671.00;5107339;28;20051;-50
2023/02/25 01:38:19;;;;;;;6.77;1.40;;;;;;;12.62;85.48;100672.94;5084449;28;20115;-48
2023/02/25 01:40:45;;;;;;;18.33;2.00;;;;;;;12.62;85.41;100668.44;5101348;28;20032;-48
2023/02/25 01:43:15;;;;;;;12.63;2.13;;;;;;;12.74;85.24;100662.38;5085392;28;20037;-50
2023/02/25 01:45:44;;;;;;;11.93;1.80;;;;;;;12.73;84.70;100666.09;5108818;28;20088;-52
2023/02/25 01:48:17;;;;;;;7.93;1.90;;;;;;;12.60;85.79;100666.97;5085573;28;20081;-50
2023/02/25 01:50:49;;;;;;;9.40;1.98;;;;;;;12.69;85.21;100662.19;5098853;28;20033;-50
2023/02/25 01:53:22;;;;;;;14.82;1.67;;;;;;;12.67;84.73;100661.59;5105479;28;20036;-48
2023/02/25 01:55:48;;;;;;;8.80;2.00;;;;;;;12.44;85.43;100663.72;5097773;28;20048;-52
2023/02/25 01:58:14;;;;;;;11.10;2.03;;;;;;;12.63;85.08;100661.19;5084910;28;20060;-48
2023/02/25 02:00:40;;;;;;;14.40;2.20;;;;;;;12.59;85.39;100655.44;5083409;28;20070;-52
2023/02/25 02:03:14;;;;;;;11.88;2.95;;;;;;;12.62;86.06;100662.22;5104637;28;20041;-52
2023/02/25 02:05:54;;;;;;;12.07;2.20;;;;;;;12.71;86.40;100663.66;5104983;28;20054;-53
2023/02/25 02:08:22;;;;;;;14.73;2.30;;;;;;;12.11;88.92;100666.50;5103588;28;20043;-52
2023/02/25 02:10:47;;;;;;;13.63;2.15;;;;;;;11.86;94.40;100665.31;5114373;28;20039;-52
2023/02/25 02:13:13;;;;;;;14.33;2.37;;;;;;;12.15;92.56;100660.53;5097659;28;20084;-48
2023/02/25 02:15:49;;;;;;;10.38;2.47;;;;;;;11.84;93.36;100656.66;5083561;28;20037;-49
2023/02/25 02:18:16;;;;;;;9.68;2.03;;;;;;;12.44;90.97;100658.38;5101732;28;20028;-51
2023/02/25 02:21:06;;;;;;;10.48;2.13;;;;;;;12.00;92.79;100658.06;5064599;28;20044;-50
2023/02/25 02:23:56;;;;;;;14.45;2.05;;;;;;;12.00;94.07;100647.34;5103843;28;20067;-49
2023/02/25 02:26:42;;;;;;;14.07;2.22;;;;;;;12.20;91.88;100649.19;5096940;28;20037;-54
2023/02/25 02:29:08;;;;;;;10.05;1.73;;;;;;;12.05;93.78;100654.78;5100199;28;20063;-48
2023/02/25 02:31:45;;;;;;;15.10;2.45;;;;;;;12.44;90.80;100655.69;5084801;28;20226;-52
2023/02/25 02:34:35;;;;;;;13.18;1.88;;;;;;;12.48;88.97;100654.25;5082051;28;20044;-50
2023/02/25 02:37:20;;;;;;;16.05;1.80;;;;;;;12.28;88.95;100650.81;5101636;28;20036;-51
2023/02/25 02:40:13;;;;;;;8.20;1.50;;;;;;;12.25;89.37;100659.28;5097759;28;20032;-51
2023/02/25 02:43:00;;;;;;;14.27;3.22;;;;;;;12.00;90.71;100657.25;5099360;28;20045;-49
2023/02/25 02:46:06;;;;;;;17.42;1.67;;;;;;;12.14;90.91;100658.88;5081768;28;20032;-51
2023/02/25 02:48:38;;;;;;;9.73;2.10;;;;;;;12.36;89.75;100661.28;5063793;28;20050;-50
2023/02/25 02:51:15;;;;;;;12.38;2.63;;;;;;;12.49;89.23;100668.47;5079108;28;20064;-51
2023/02/25 02:53:49;;;;;;;12.57;2.90;;;;;;;11.95;90.66;100651.69;5083172;28;20033;-48
2023/02/25 02:56:18;;;;;;;10.05;2.47;;;;;;;12.06;91.33;100661.81;5080489;28;20043;-48
2023/02/25 02:58:51;;;;;;;5.70;2.00;;;;;;;12.25;90.70;100664.66;5101295;28;20081;-48
2023/02/25 03:01:31;;;;;;;7.93;1.45;;;;;;;11.88;91.69;100665.91;5098388;28;20112;-50
2023/02/25 03:04:07;;;;;;;18.05;2.17;;;;;;;12.22;90.79;100667.72;5096612;28;20096;-51
2023/02/25 03:06:35;;;;;;;14.98;2.38;;;;;;;12.08;91.40;100665.09;5078778;28;20036;-49
2023/02/25 03:09:17;;;;;;;19.13;2.38;;;;;;;12.34;89.94;100668.72;5079630;28;20414;-51
2023/02/25 03:11:42;;;;;;;15.43;3.03;;;;;;;11.74;93.00;100658.91;5102919;28;20040;-52
2023/02/25 03:14:13;;;;;;;12.82;2.17;;;;;;;11.84;92.54;100659.34;5113147;28;20031;-50
2023/02/25 03:16:46;;;;;;;14.60;2.50;;;;;;;11.88;91.51;100665.91;5099080;28;20024;-52
2023/02/25 03:19:15;;;;;;;15.68;3.15;;;;;;;11.63;93.36;100665.72;5077514;28;20150;-50
2023/02/25 03:21:45;;;;;;;9.80;1.67;;;;;;;11.71;93.65;100660.16;5079824;28;20032;-53
2023/02/25 03:24:21;;;;;;;17.60;3.35;;;;;;;11.90;92.72;100671.88;5103638;28;20479;-53
2023/02/25 03:26:49;;;;;;;17.38;2.30;;;;;;;11.87;92.73;100669.63;5079213;28;20032;-47
2023/02/25 03:29:21;;;;;;;12.27;2.35;;;;;;;11.71;92.62;100665.53;5082723;28;20073;-52
2023/02/25 03:31:55;;;;;;;19.30;2.78;;;;;;;11.84;92.68;100669.22;5112192;28;20051;-51
2023/02/25 03:34:30;;;;;;;12.10;2.10;;;;;;;11.76;93.43;100676.44;5086841;28;20036;-52
2023/02/25 03:37:03;;;;;;;17.63;3.75;;;;;;;11.80;93.73;100684.06;5095492;28;20043;-49
2023/02/25 03:39:38;;;;;;;18.65;3.38;;;;;;;11.83;94.69;100678.28;5080722;28;20036;-52
2023/02/25 03:42:10;;;;;;;24.67;3.70;;;;;;;11.85;94.35;100673.53;5110287;28;20036;-49
2023/02/25 03:44:50;;;;;;;21.27;3.05;;;;;;;11.75;95.24;100682.81;5114062;28;20063;-49
2023/02/25 03:47:18;;;;;;;20.45;4.55;;;;;;;11.61;96.37;100678.50;5097247;28;20039;-50
2023/02/25 03:50:24;;;;;;;21.15;3.78;;;;;;;11.65;97.17;100681.59;5079852;28;20040;-51
2023/02/25 03:52:55;;;;;;;24.10;2.65;;;;;;;11.97;95.08;100677.25;5103940;28;20028;-54
2023/02/25 03:55:42;;;;;;;25.98;5.03;;;;;;;11.73;96.31;100670.66;5075686;28;20036;-52
2023/02/25 03:58:09;;;;;;;22.02;4.72;;;;;;;11.72;95.61;100671.69;5074508;28;20032;-50
2023/02/25 04:00:37;;;;;;;25.95;4.95;;;;;;;11.67;96.69;100674.19;5080311;28;20043;-51
2023/02/25 04:03:04;;;;;;;21.10;3.60;;;;;;;11.71;96.50;100680.75;5077929;28;20059;-53
2023/02/25 04:05:30;;;;;;;;;;;;;;;11.53;97.31;100684.06;5116859;28;20037;-52
2023/02/25 04:07:57;;;;;;;13.23;2.93;;;;;;;11.80;94.97;100679.53;5093226;28;19930;-51
2023/02/25 04:10:27;;;;;;;14.95;2.55;;;;;;;11.58;95.36;100681.59;5084066;28;20028;-48
2023/02/25 04:12:52;;;;;;;20.75;3.88;;;;;;;11.62;95.00;100688.19;5093803;28;20040;-50
2023/02/25 04:15:19;;;;;;;23.10;2.93;;;;;;;11.56;94.93;100684.50;5077695;28;20051;-48
2023/02/25 04:17:45;;;;;;;20.65;3.58;;;;;;;11.77;93.01;100686.13;5079414;28;20291;-52
2023/02/25 04:20:13;;;;;;;21.33;3.55;;;;;;;11.85;92.62;100692.28;5077350;28;20050;-51
2023/02/25 04:22:40;;;;;;;25.45;3.13;;;;;;;11.82;92.81;100693.56;5095398;28;20438;-53
2023/02/25 04:25:06;;;;;;;24.07;3.53;;;;;;;11.96;92.24;100696.19;5095935;28;20029;-50
2023/02/25 04:27:32;;;;;;;;;;;;;;;11.72;92.51;100693.13;5085144;28;20044;-47
2023/02/25 04:29:57;;;;;;;18.40;3.23;;;;;;;11.57;94.36;100690.66;5095221;28;19969;-51
2023/02/25 04:32:24;;;;;;;30.50;3.10;;;;;;;11.52;93.19;100695.81;5096303;28;20053;-48
2023/02/25 04:34:49;;;;;;;19.40;3.15;;;;;;;11.85;92.31;100703.84;5097090;28;20061;-48
2023/02/25 04:37:16;;;;;;;17.95;3.10;;;;;;;11.15;93.90;100698.84;5098574;28;20076;-49
2023/02/25 04:39:42;;;;;;;29.08;3.60;;;;;;;11.59;93.06;100712.69;5095615;28;20032;-50
2023/02/25 04:42:08;;;;;;;24.63;3.85;;;;;;;11.29;93.10;100713.09;5096116;28;20034;-53
2023/02/25 04:44:34;;;;;;;31.13;3.95;;;;;;;11.44;92.46;100713.72;5097868;28;20596;-48
2023/02/25 04:47:00;;;;;;;21.40;3.33;;;;;;;11.44;91.62;100721.78;5093207;28;20035;-51
2023/02/25 04:49:25;;;;;;;22.77;2.85;;;;;;;11.35;92.10;100724.84;5098283;28;20021;-54
2023/02/25 04:51:51;;;;;;;22.40;2.97;;;;;;;11.34;92.06;100718.66;5099292;28;20040;-52
2023/02/25 04:54:20;;;;;;;32.70;4.85;;;;;;;11.07;93.42;100720.44;5100127;28;20040;-47
2023/02/25 04:56:47;;;;;;;33.30;3.60;;;;;;;11.03;93.40;100720.84;5103298;28;20029;-52
2023/02/25 04:59:13;;;;;;;21.58;2.80;;;;;;;11.04;94.38;100721.69;5105159;28;20099;-52
2023/02/25 05:01:38;;;;;;;21.83;3.88;;;;;;;11.15;93.85;100721.06;5101422;28;20032;-49
2023/02/25 05:04:04;;;;;;;14.17;2.83;;;;;;;11.17;93.55;100715.53;5107716;28;20032;-54
2023/02/25 05:06:30;;;;;;;22.48;3.33;;;;;;;11.19;93.17;100726.84;5104623;28;20043;-53
2023/02/25 05:08:57;;;;;;;20.30;4.05;;;;;;;11.25;92.17;100719.88;5103294;28;20112;-54
2023/02/25 05:11:24;;;;;;;28.30;4.55;;;;;;;10.95;94.04;100710.31;5105943;28;20039;-54
2023/02/25 05:13:50;;;;;;;24.67;3.20;;;;;;;11.00;93.80;100723.09;5102783;28;20047;-51
2023/02/25 05:16:18;;;;;;;24.77;4.30;;;;;;;11.07;92.83;100718.59;5102219;28;20036;-55
2023/02/25 05:18:45;;;;;;;24.73;4.35;;;;;;;10.86;92.99;100708.88;5106499;28;20139;-52
2023/02/25 05:21:19;;;;;;;24.25;4.05;;;;;;;10.96;92.73;100717.31;5108187;28;20028;-53
2023/02/25 05:23:47;;;;;;;21.67;3.03;;;;;;;11.12;91.61;100723.34;5104918;28;20063;-51
2023/02/25 05:26:14;;;;;;;22.17;2.85;;;;;;;10.97;92.47;100718.16;5106513;28;20042;-52
2023/02/25 05:28:42;;;;;;;27.13;2.88;;;;;;;11.03;91.49;100722.69;5101522;28;20029;-52
2023/02/25 05:31:11;;;;;;;18.38;3.03;;;;;;;10.76;92.35;100722.63;5106817;28;20035;-54
2023/02/25 05:33:38;;;;;;;18.95;3.08;;;;;;;10.58;91.94;100720.44;5102602;28;20121;-53
2023/02/25 05:36:05;;;;;;;23.88;3.85;;;;;;;11.03;91.09;100717.34;5101710;28;20048;-51
2023/02/25 05:38:32;;;;;;;24.58;3.88;;;;;;;11.05;90.14;100718.78;5104374;28;20106;-53
2023/02/25 05:40:59;;;;;;;13.07;2.73;;;;;;;11.05;89.93;100720.66;5104847;28;20549;-50
2023/02/25 05:43:26;;;;;;;23.35;3.35;;;;;;;11.40;88.13;100722.38;5104465;28;20051;-52
2023/02/25 05:45:53;;;;;;;24.38;3.08;;;;;;;11.58;87.83;100732.47;5103003;28;20044;-50
2023/02/25 05:48:19;;;;;;;22.05;2.88;;;;;;;11.56;87.19;100730.03;5101224;28;20055;-53
2023/02/25 05:50:45;;;;;;;22.83;3.05;;;;;;;11.45;87.53;100725.25;5102695;28;20040;-51
2023/02/25 05:53:11;;;;;;;19.07;2.87;;;;;;;11.52;87.17;100718.03;5105379;28;20168;-50
2023/02/25 05:55:41;;;;;;;26.33;3.00;;;;;;;11.20;87.78;100715.13;5105909;28;20287;-54
2023/02/25 05:58:08;;;;;;;27.95;3.92;;;;;;;11.04;88.77;100719.00;5100594;28;20028;-49
2023/02/25 06:00:33;;;;;;;24.70;3.28;;;;;;;10.91;90.23;100711.75;5103723;28;20041;-51
2023/02/25 06:02:58;;;;;;;19.30;3.87;;;;;;;10.89;91.92;100722.66;5102545;28;20071;-52
2023/02/25 06:05:24;;;;;;;26.87;3.80;;;;;;;10.52;93.36;100722.09;5099322;28;20024;-55
2023/02/25 06:07:49;;;;;;;23.60;4.17;;;;;;;10.54;92.87;100716.53;5101559;28;20024;-53
2023/02/25 06:10:15;;;;;;;33.40;5.13;;;;;;;10.51;92.68;100719.59;5096094;28;20063;-49
2023/02/25 06:12:41;;;;;;;20.38;4.22;;;;;;;10.74;92.31;100725.47;5100223;28;20269;-52
2023/02/25 06:15:07;;;;;;;16.47;3.50;;;;;;;11.28;89.03;100728.31;5098789;28;20063;-51
2023/02/25 06:17:33;;;;;;;28.45;3.60;;;;;;;11.72;87.77;100731.47;5100190;28;20051;-53
2023/02/25 06:20:00;;;;;;;23.92;4.57;;;;;;;11.82;86.73;100735.59;5098192;28;20040;-49
2023/02/25 06:22:25;;;;;;;26.77;3.83;;;;;;;11.74;87.36;100741.97;5099732;28;20051;-51
2023/02/25 06:24:51;;;;;;;20.33;3.27;;;;;;;11.62;87.47;100747.94;5101444;28;20056;-51
2023/02/25 06:27:17;;;;;;;11.27;2.30;;;;;;;11.62;87.43;100752.47;5095411;28;20289;-49
2023/02/25 06:29:42;;;;;;;25.57;3.80;;;;;;;11.21;89.36;100743.53;5099871;28;20055;-54
2023/02/25 06:32:08;;;;;;;18.57;3.17;;;;;;;11.18;88.42;100747.44;5109408;28;20292;-48
2023/02/25 06:34:34;;;;;;;15.35;2.78;;;;;;;11.88;87.04;100738.25;5096956;28;20048;-49
2023/02/25 06:37:00;;;;;;;20.93;3.27;;;;;;;11.33;88.64;100747.28;5097386;28;20024;-50
2023/02/25 06:39:26;;;;;;;15.27;3.10;;;;;;;11.34;88.70;100761.47;5099586;28;20082;-52
2023/02/25 06:41:52;;;;;;;22.63;3.17;;;;;;;11.30;88.63;100760.25;5100076;28;20036;-49
2023/02/25 06:44:17;;;;;;;16.10;3.83;;;;;;;11.37;88.65;100754.91;5096763;28;20035;-51
2023/02/25 06:46:43;;;;;;;13.63;2.50;;;;;;;10.90;90.75;100756.41;5096587;28;20169;-52
2023/02/25 06:49:08;;;;;;;16.13;3.20;;;;;;;11.16;90.55;100764.75;5097763;28;20281;-46
2023/02/25 06:51:34;;;;;;;27.50;3.57;;;;;;;11.29;90.06;100775.47;5102282;28;20040;-51
2023/02/25 06:54:02;;;;;;;22.43;3.03;;;;;;;11.42;89.57;100772.03;5100170;28;20292;-48
2023/02/25 06:56:29;;;;;;;16.23;2.63;;;;;;;11.22;90.77;100774.63;5102389;28;20033;-54
2023/02/25 06:58:57;;;;;;;16.67;2.80;;;;;;;11.22;91.38;100776.50;5095670;28;20059;-51
2023/02/25 07:01:22;;;;;;;14.77;2.40;;;;;;;10.71;94.05;100778.53;5096195;28;20092;-51
2023/02/25 07:03:48;;;;;;;30.87;4.10;;;;;;;11.15;91.45;100771.13;5101463;28;21089;-49
2023/02/25 07:06:14;;;;;;;19.63;2.72;;;;;;;11.58;89.56;100778.00;5094139;28;20096;-52
2023/02/25 07:08:40;;;;;;;16.90;2.33;;;;;;;11.62;89.61;100787.28;5097864;28;20028;-50
2023/02/25 07:11:10;;;;;;;16.27;3.87;;;;;;;11.59;88.91;100790.38;5099621;28;20044;-53
2023/02/25 07:13:36;;;;;;;17.23;2.60;;;;;;;11.89;89.41;100796.19;5099546;28;20056;-52
2023/02/25 07:16:02;;;;;;;22.07;3.23;;;;;;;11.37;90.78;100797.75;5104208;28;20043;-51
2023/02/25 07:18:27;;;;;;;19.20;2.80;;;;;;;11.63;89.01;100796.97;5100505;28;20265;-51
2023/02/25 07:20:53;;;;;;;23.88;2.72;;;;;;;11.87;88.31;100792.06;5099390;28;20096;-48
2023/02/25 07:23:18;;;;;;;16.90;3.10;;;;;;;11.41;88.79;100788.28;5104918;28;20036;-50
2023/02/25 07:25:45;;;;;;;23.23;3.43;;;;;;;11.57;89.36;100798.63;5095974;28;20104;-51
2023/02/25 07:28:10;;;;;;;;;;;;;;;11.66;89.22;100798.44;5099249;28;20304;-51
2023/02/25 07:30:36;;;;;;;24.73;3.60;;;;;;;11.35;89.96;100797.94;5097970;28;19912;-52
2023/02/25 07:33:01;;;;;;;15.90;2.80;;;;;;;11.84;88.99;100812.06;5102128;28;20032;-51
2023/02/25 07:35:27;;;;;;;11.57;2.30;;;;;;;11.76;91.04;100825.63;5093255;28;20049;-54
2023/02/25 07:37:52;;;;;;;19.30;3.53;;;;;;;12.06;89.27;100836.03;5097605;28;20027;-53
2023/02/25 07:40:18;;;;;;;9.63;2.93;;;;;;;11.40;95.11;100841.00;5095296;28;20028;-51
2023/02/25 07:42:44;;;;;;;7.28;2.70;;;;;;;11.64;97.90;100841.47;5097187;28;20039;-54
2023/02/25 07:45:10;;;;;;;;;;;;;;;12.26;92.33;100843.25;5081415;28;20036;-49
2023/02/25 07:47:37;;;;;;;13.23;1.73;;;;;;;12.54;90.64;100832.28;5097020;28;19920;-50
2023/02/25 07:50:05;;;;;;;13.65;2.38;;;;;;;12.46;92.01;100835.19;5102540;28;20047;-46
2023/02/25 07:52:31;;;;;;;11.32;2.05;;;;;;;12.48;91.24;100844.69;5096236;28;20062;-50
2023/02/25 07:54:57;;;;;;;14.90;2.38;;;;;;;12.21;93.43;100848.38;5097095;28;20043;-51
2023/02/25 07:57:23;;;;;;;6.00;1.30;;;;;;;12.50;92.57;100846.34;5094642;28;20033;-48
2023/02/25 07:59:48;;;;;;;22.60;2.60;;;;;;;12.28;94.29;100843.88;5098226;28;20040;-54
2023/02/25 08:02:14;;;;;;;14.33;2.53;;;;;;;12.88;91.18;100842.94;5102978;28;20268;-53
2023/02/25 08:04:39;;;;;;;8.87;1.63;;;;;;;12.44;93.07;100839.94;5093016;28;20039;-55
2023/02/25 08:07:05;;;;;;;10.77;2.42;;;;;;;12.64;91.96;100834.53;5097931;28;20036;-52
2023/02/25 08:09:31;;;;;;;9.82;1.90;;;;;;;12.89;90.53;100841.91;5097035;28;20113;-53
2023/02/25 08:11:56;;;;;;;13.43;2.65;;;;;;;13.11;88.38;100841.63;5082030;28;20027;-53
2023/02/25 08:14:22;;;;;;;14.97;2.00;;;;;;;13.02;88.79;100847.25;5094777;28;20044;-51
2023/02/25 08:16:48;;;;;;;6.93;1.77;;;;;;;13.17;88.73;100843.50;5095844;28;20036;-53
2023/02/25 08:19:14;;;;;;;12.68;2.83;;;;;;;13.59;86.48;100859.22;5097358;28;20029;-52
2023/02/25 08:21:39;;;;;;;20.90;3.27;;;;;;;13.25;86.77;100853.97;5098201;28;20047;-50
2023/02/25 08:24:06;;;;;;;21.73;2.37;;;;;;;13.47;86.22;100864.47;5098223;28;20032;-51
2023/02/25 08:26:32;;;;;;;16.40;2.65;;;;;;;13.66;84.75;100860.00;5112520;28;20073;-52
2023/02/25 08:28:58;;;;;;;16.40;2.03;;;;;;;13.89;83.97;100856.78;5093996;28;20343;-51
2023/02/25 08:31:24;;;;;;;14.23;2.85;;;;;;;14.34;82.58;100863.06;5100129;28;20032;-49
2023/02/25 08:33:51;;;;;;;12.50;1.85;;;;;;;14.63;81.23;100860.72;5098488;28;20092;-53
2023/02/25 08:36:20;;;;;;;13.15;1.95;;;;;;;14.24;82.77;100868.09;5093673;28;20051;-50
2023/02/25 08:38:45;;;;;;;23.38;3.35;;;;;;;14.84;80.38;100866.78;5096959;28;20035;-48
2023/02/25 08:41:11;;;;;;;17.63;2.80;;;;;;;15.14;79.17;100879.50;5101772;28;20100;-52
2023/02/25 08:43:38;;;;;;;16.08;2.13;;;;;;;15.47;77.06;100880.97;5096075;28;20041;-49
2023/02/25 08:46:05;;;;;;;17.07;3.43;;;;;;;15.32;77.06;100879.47;5079738;28;20084;-49
2023/02/25 08:48:32;;;;;;;15.90;2.37;;;;;;;14.57;79.21;100877.78;5111947;28;20295;-49
2023/02/25 08:51:07;;;;;;;35.10;2.90;;;;;;;14.80;77.96;100879.03;5096492;28;20488;-53
2023/02/25 08:53:38;;;;;;;17.53;2.67;;;;;;;14.24;78.33;100871.63;5100021;28;20287;-49
2023/02/25 08:56:07;;;;;;;13.23;2.50;;;;;;;14.39;80.32;100881.22;5098286;28;20269;-51
2023/02/25 08:58:34;;;;;;;22.17;3.10;;;;;;;14.78;78.83;100876.56;5100170;28;20344;-52
2023/02/25 09:01:00;;;;;;;25.48;4.10;;;;;;;14.91;78.65;100878.28;5097182;28;20276;-50
2023/02/25 09:03:25;;;;;;;11.40;2.40;;;;;;;15.86;76.19;100889.53;5096780;28;20341;-53
2023/02/25 09:05:52;;;;;;;17.75;3.90;;;;;;;15.37;76.66;100891.44;5101450;28;20029;-51
2023/02/25 09:08:18;;;;;;;16.17;2.80;;;;;;;15.41;76.81;100889.94;5100451;28;20040;-51
2023/02/25 09:10:45;;;;;;;12.93;3.50;;;;;;;15.49;77.01;100905.81;5101687;28;20269;-53
2023/02/25 09:13:10;;;;;;;11.38;2.10;;;;;;;15.05;78.10;100908.59;5097812;28;20054;-47
2023/02/25 09:15:36;;;;;;;10.18;2.65;;;;;;;14.44;81.63;100903.75;5100565;28;20063;-51
2023/02/25 09:18:01;;;;;;;19.73;2.60;;;;;;;14.85;81.31;100909.59;5097513;28;20037;-51
2023/02/25 09:20:26;;;;;;;15.40;2.90;;;;;;;14.65;81.35;100917.84;5097194;28;20033;-49
2023/02/25 09:22:53;;;;;;;12.20;2.85;;;;;;;14.83;81.02;100914.41;5101550;28;20059;-49
2023/02/25 09:25:19;;;;;;;20.65;3.13;;;;;;;14.77;82.11;100921.50;5097934;28;20114;-51
2023/02/25 09:27:45;;;;;;;14.60;2.80;;;;;;;14.66;82.36;100940.22;5092482;28;20032;-51
2023/02/25 09:30:11;;;;;;;19.60;3.50;;;;;;;14.61;82.22;100930.09;5096009;28;20269;-51
2023/02/25 09:32:37;;;;;;;18.58;2.67;;;;;;;14.28;84.18;100939.25;5096383;28;20032;-47
2023/02/25 09:35:06;;;;;;;18.38;2.58;;;;;;;14.47;84.69;100946.34;5093360;28;20056;-52
2023/02/25 09:37:33;;;;;;;12.13;2.80;;;;;;;14.38;85.00;100946.84;5092961;28;20029;-52
2023/02/25 09:39:58;;;;;;;21.48;2.42;;;;;;;13.64;89.76;100949.97;5093050;28;20273;-53
2023/02/25 09:42:37;;;;;;;14.65;2.97;;;;;;;14.48;86.00;100956.06;5097167;28;20037;-53
2023/02/25 09:45:14;;;;;;;16.33;2.50;;;;;;;15.24;83.27;100965.16;5095284;28;20036;-55
2023/02/25 09:47:47;;;;;;;15.05;2.83;;;;;;;15.42;81.23;100965.19;5102420;28;20302;-53
2023/02/25 09:50:20;;;;;;;14.50;2.77;;;;;;;16.17;80.59;100963.22;5097020;28;20044;-50
2023/02/25 09:52:49;;;;;;;13.33;1.67;;;;;;;17.23;76.73;100968.97;5093710;28;20268;-52
2023/02/25 09:55:20;;;;;;;14.20;2.20;;;;;;;19.06;72.14;100972.84;5100708;28;20284;-52
2023/02/25 09:58:01;;;;;;;16.53;2.73;;;;;;;19.82;67.04;100975.94;5099516;28;20269;-53
2023/02/25 10:00:34;;;;;;;12.53;2.07;;;;;;;19.53;65.64;100973.44;5105385;28;20260;-53
2023/02/25 10:03:18;;;;;;;12.27;2.83;;;;;;;19.90;64.80;100985.53;5101890;28;20277;-49
2023/02/25 10:06:09;;;;;;;11.93;2.67;;;;;;;19.41;63.83;100989.03;5105690;28;20277;-51
2023/02/25 10:08:57;;;;;;;6.17;1.90;;;;;;;19.65;64.57;100994.22;5066987;28;20285;-52
2023/02/25 10:11:41;;;;;;;10.23;2.13;;;;;;;18.97;63.66;100987.88;5100411;28;20032;-55
2023/02/25 10:14:27;;;;;;;8.07;1.83;;;;;;;18.41;63.06;100995.91;5101676;28;20035;-52
2023/02/25 10:17:14;;;;;;;2.93;1.23;;;;;;;17.42;63.90;100996.69;5100409;28;20273;-51
2023/02/25 10:19:58;;;;;;;5.50;1.27;;;;;;;17.62;66.11;100999.00;5100768;28;20273;-56
2023/02/25 10:22:45;;;;;;;3.93;1.43;;;;;;;17.03;68.24;101005.28;5098021;28;20020;-53
2023/02/25 10:25:19;;;;;;;9.05;1.63;;;;;;;16.87;66.45;101011.38;5098826;28;20333;-55
2023/02/25 10:27:56;;;;;;;7.83;1.70;;;;;;;17.10;64.94;101021.38;5102928;28;20036;-53
2023/02/25 10:30:25;;;;;;;9.33;2.57;;;;;;;17.01;66.77;101020.91;5099471;28;20281;-49
2023/02/25 10:32:52;;;;;;;6.07;1.73;;;;;;;17.58;65.97;101016.78;5096939;28;20265;-51
2023/02/25 10:35:25;;;;;;;6.93;1.60;;;;;;;17.81;63.70;101020.47;5100613;28;20296;-53
2023/02/25 10:37:51;;;;;;;5.90;1.50;;;;;;;18.18;64.24;101022.84;5097421;28;20287;-51
2023/02/25 10:40:19;;;;;;;8.23;1.88;;;;;;;17.90;64.21;101021.72;5100312;28;20279;-52
2023/02/25 10:42:48;;;;;;;5.40;1.60;;;;;;;18.07;63.03;101029.13;5097186;28;20036;-51
2023/02/25 10:45:27;;;;;;;11.17;1.80;;;;;;;18.27;63.06;101022.47;5103162;28;20348;-52
2023/02/25 10:48:11;;;;;;;10.57;1.90;;;;;;;18.72;58.10;101029.75;5096538;28;20288;-53
2023/02/25 10:50:38;;;;;;;13.93;2.13;;;;;;;19.08;57.30;101021.38;5099067;28;20273;-54
2023/02/25 10:53:12;;;;;;;10.43;2.50;;;;;;;19.28;58.21;101037.13;5103028;28;20296;-55
2023/02/25 10:55:45;;;;;;;11.43;1.63;;;;;;;21.09;55.71;101034.72;5100379;28;20304;-51
2023/02/25 10:58:30;;;;;;;10.17;2.60;;;;;;;21.49;53.62;101041.50;5102243;28;20269;-52
2023/02/25 11:01:15;;;;;;;12.20;2.60;;;;;;;21.25;53.32;101039.19;5095892;28;20036;-51
2023/02/25 11:03:44;;;;;;;7.57;2.43;;;;;;;20.40;54.34;101032.50;5098815;28;20035;-48
2023/02/25 11:06:30;;;;;;;6.43;1.47;;;;;;;19.01;55.65;101034.28;5099005;28;20032;-53
2023/02/25 11:08:58;;;;;;;9.23;1.90;;;;;;;19.20;54.78;101038.38;5097871;28;20043;-50
2023/02/25 11:11:37;;;;;;;5.00;1.53;;;;;;;19.41;55.10;101035.13;5104194;28;20028;-48
2023/02/25 11:14:06;;;;;;;7.40;1.70;;;;;;;19.00;56.95;101036.19;5103667;28;20087;-54
2023/02/25 11:16:35;;;;;;;10.07;2.00;;;;;;;18.82;55.27;101044.53;5102756;28;20040;-53
2023/02/25 11:19:24;;;;;;;7.43;2.20;;;;;;;18.39;56.58;101047.56;5095851;28;20039;-50
2023/02/25 11:21:50;;;;;;;8.60;1.80;;;;;;;18.10;56.73;101047.59;5098213;28;20071;-49
2023/02/25 11:24:27;;;;;;;7.72;1.75;;;;;;;17.91;58.31;101053.13;5098397;28;20269;-50
2023/02/25 11:26:53;;;;;;;;;;;;;;;18.51;58.01;101054.84;5097437;28;20067;-53
2023/02/25 11:29:23;;;;;;;14.00;2.53;;;;;;;19.89;55.47;101051.75;5100389;28;20122;-52